RJFC(METAR)
10/20 19:00
RJFC 201000Z 05014KT 9999 FEW030 SCT050 22/16 Q1020 RMK A3015=
戻る
トップページへ戻る
IMOC Co,.Ltd.